createdAt,value
2019-03-25T00:00:42.211Z,52.54
2019-03-25T00:03:15.597Z,52.06
2019-03-25T00:05:48.436Z,52.14
2019-03-25T00:08:19.447Z,52.20
2019-03-25T00:10:50.762Z,52.40
2019-03-25T00:13:22.873Z,52.44
2019-03-25T00:15:56.418Z,52.49
2019-03-25T00:18:28.531Z,52.45
2019-03-25T00:21:00.135Z,52.62
2019-03-25T00:23:31.243Z,52.88
2019-03-25T00:26:02.544Z,52.94
2019-03-25T00:28:35.415Z,53.06
2019-03-25T00:31:06.763Z,53.07
2019-03-25T00:33:37.955Z,53.29
2019-03-25T00:36:09.224Z,53.27
2019-03-25T00:38:40.271Z,53.23
2019-03-25T00:41:11.291Z,53.45
2019-03-25T00:43:42.524Z,53.73
2019-03-25T00:46:13.708Z,53.98
2019-03-25T00:48:44.772Z,53.92
2019-03-25T00:51:16.975Z,54.07
2019-03-25T00:53:48.164Z,53.97
2019-03-25T00:56:19.407Z,53.85
2019-03-25T00:58:50.575Z,54.12
2019-03-25T01:01:21.807Z,54.11
2019-03-25T01:03:52.894Z,54.04
2019-03-25T01:06:24.083Z,54.64
2019-03-25T01:08:55.396Z,54.48
2019-03-25T01:11:26.526Z,54.31
2019-03-25T01:13:57.835Z,54.44
2019-03-25T01:16:29.268Z,54.61
2019-03-25T01:19:00.526Z,54.91
2019-03-25T01:21:31.733Z,55.08
2019-03-25T01:24:02.834Z,55.14
2019-03-25T01:26:34.111Z,55.12
2019-03-25T01:29:05.202Z,55.09
2019-03-25T01:31:36.485Z,55.15
2019-03-25T01:34:07.586Z,55.14
2019-03-25T01:36:38.857Z,55.38
2019-03-25T01:39:11.114Z,55.32
2019-03-25T01:41:42.155Z,55.23
2019-03-25T01:44:14.229Z,55.30
2019-03-25T01:46:46.522Z,55.41
2019-03-25T01:49:17.623Z,55.24
2019-03-25T01:51:48.809Z,55.58
2019-03-25T01:54:20.116Z,55.47
2019-03-25T01:56:52.407Z,55.59
2019-03-25T01:59:23.503Z,56.89
2019-03-25T02:01:54.622Z,58.28
2019-03-25T02:04:25.761Z,58.79
2019-03-25T02:06:56.797Z,58.80
2019-03-25T02:09:27.854Z,58.25
2019-03-25T02:11:59.306Z,58.31
2019-03-25T02:14:33.282Z,58.26
2019-03-25T02:17:04.439Z,58.64
2019-03-25T02:19:35.557Z,58.46
2019-03-25T02:22:06.659Z,58.77
2019-03-25T02:24:37.743Z,59.06
2019-03-25T02:27:09.046Z,60.41
2019-03-25T02:29:40.068Z,60.96
2019-03-25T02:32:13.921Z,60.48
2019-03-25T02:34:44.076Z,60.28
2019-03-25T02:37:15.303Z,60.16
2019-03-25T02:39:46.741Z,59.82
2019-03-25T02:42:17.745Z,59.16
2019-03-25T02:44:48.898Z,59.48
2019-03-25T02:47:20.314Z,59.49
2019-03-25T02:49:51.427Z,59.67
2019-03-25T02:52:22.498Z,59.86
2019-03-25T02:54:53.597Z,60.75
2019-03-25T02:57:24.747Z,60.71
2019-03-25T02:59:55.844Z,60.87
2019-03-25T03:02:26.912Z,60.50
2019-03-25T03:04:58.064Z,60.88
2019-03-25T03:07:29.234Z,62.01
2019-03-25T03:10:00.614Z,63.79
2019-03-25T03:12:31.649Z,64.28
2019-03-25T03:15:02.749Z,64.81
2019-03-25T03:17:34.561Z,64.37
2019-03-25T03:20:07.173Z,64.32
2019-03-25T03:22:40.320Z,64.00
2019-03-25T03:25:11.483Z,63.72
2019-03-25T03:27:43.673Z,65.08
2019-03-25T03:30:15.160Z,65.03
2019-03-25T03:32:46.504Z,64.94
2019-03-25T03:35:17.880Z,64.78
2019-03-25T03:37:48.970Z,64.45
2019-03-25T03:40:20.080Z,64.84
2019-03-25T03:42:51.152Z,64.54
2019-03-25T03:45:22.295Z,64.52
2019-03-25T03:47:53.454Z,64.20
2019-03-25T03:50:26.382Z,64.29
2019-03-25T03:52:57.865Z,64.05
2019-03-25T03:55:29.033Z,63.70
2019-03-25T03:58:00.097Z,63.97
2019-03-25T04:00:32.843Z,63.76
2019-03-25T04:03:03.854Z,64.10
2019-03-25T04:05:34.997Z,63.83
2019-03-25T04:08:06.244Z,63.69
2019-03-25T04:10:37.375Z,63.36
2019-03-25T04:13:08.353Z,63.05
2019-03-25T04:15:39.730Z,63.00
2019-03-25T04:18:10.994Z,62.83
2019-03-25T04:20:42.020Z,62.48
2019-03-25T04:23:13.125Z,62.44
2019-03-25T04:25:44.177Z,62.62
2019-03-25T04:28:15.327Z,62.03
2019-03-25T04:30:46.436Z,62.49
2019-03-25T04:33:17.958Z,61.34
2019-03-25T04:35:49.027Z,61.39
2019-03-25T04:38:20.038Z,60.90
2019-03-25T04:40:51.199Z,60.52
2019-03-25T04:43:22.703Z,61.88
2019-03-25T04:45:53.993Z,62.24
2019-03-25T04:48:25.198Z,61.66
2019-03-25T04:50:56.379Z,61.82
2019-03-25T04:53:27.513Z,61.25
2019-03-25T04:56:01.912Z,61.07
2019-03-25T04:58:33.044Z,60.52
2019-03-25T05:01:04.119Z,61.48
2019-03-25T05:03:35.083Z,61.59
2019-03-25T05:06:07.262Z,61.47
2019-03-25T05:08:38.337Z,61.25
2019-03-25T05:11:11.779Z,60.75
2019-03-25T05:13:43.008Z,60.56
2019-03-25T05:16:15.197Z,60.50
2019-03-25T05:18:46.380Z,60.46
2019-03-25T05:21:17.667Z,60.44
2019-03-25T05:23:50.139Z,60.58
2019-03-25T05:26:21.350Z,60.29
2019-03-25T05:28:52.783Z,60.29
2019-03-25T05:31:24.978Z,59.94
2019-03-25T05:33:56.250Z,59.72
2019-03-25T05:36:27.716Z,59.59
2019-03-25T05:38:58.884Z,59.10
2019-03-25T05:41:29.851Z,58.59
2019-03-25T05:44:01.001Z,58.23
2019-03-25T05:46:32.234Z,58.34
2019-03-25T05:49:03.533Z,58.34
2019-03-25T05:51:34.730Z,58.35
2019-03-25T05:54:05.842Z,57.98
2019-03-25T05:56:36.951Z,57.92
2019-03-25T05:59:08.013Z,57.76
2019-03-25T06:01:39.093Z,57.49
2019-03-25T06:04:10.082Z,57.37
2019-03-25T06:06:41.207Z,57.08
2019-03-25T06:09:14.115Z,57.02
2019-03-25T06:11:45.219Z,56.55
2019-03-25T06:14:16.237Z,56.57
2019-03-25T06:16:47.472Z,56.72
2019-03-25T06:19:18.780Z,56.38
2019-03-25T06:21:51.055Z,56.36
2019-03-25T06:24:22.131Z,55.83
2019-03-25T06:26:53.349Z,55.81
2019-03-25T06:29:26.062Z,55.98
2019-03-25T06:31:57.187Z,55.58
2019-03-25T06:34:28.164Z,55.11
2019-03-25T06:37:01.183Z,55.06
2019-03-25T06:39:32.303Z,54.86
2019-03-25T06:42:03.465Z,54.63
2019-03-25T06:44:34.810Z,55.10
2019-03-25T06:47:05.983Z,54.11
2019-03-25T06:49:37.166Z,54.07
2019-03-25T06:52:08.284Z,54.73
2019-03-25T06:54:39.296Z,54.61
2019-03-25T06:57:10.361Z,54.79
2019-03-25T06:59:41.454Z,54.63
2019-03-25T07:02:12.495Z,53.73
2019-03-25T07:04:43.607Z,52.83
2019-03-25T07:07:14.691Z,52.96
2019-03-25T07:09:45.720Z,53.57
2019-03-25T07:12:16.957Z,52.08
2019-03-25T07:14:48.129Z,52.26
2019-03-25T07:17:21.410Z,52.26
2019-03-25T07:19:53.588Z,51.70
2019-03-25T07:22:24.751Z,51.30
2019-03-25T07:24:55.952Z,50.80
2019-03-25T07:27:36.377Z,50.51
2019-03-25T07:29:59.844Z,50.38
2019-03-25T07:32:30.998Z,50.25
2019-03-25T07:35:02.036Z,50.42
2019-03-25T07:37:33.126Z,49.61
2019-03-25T07:40:07.756Z,48.73
2019-03-25T07:42:39.010Z,48.87
2019-03-25T07:45:10.113Z,48.63
2019-03-25T07:47:41.330Z,48.60
2019-03-25T07:50:12.501Z,48.16
2019-03-25T07:52:43.726Z,47.75
2019-03-25T07:55:14.738Z,47.31
2019-03-25T07:57:48.609Z,47.65
2019-03-25T08:00:20.404Z,46.71
2019-03-25T08:02:51.581Z,46.38
2019-03-25T08:05:22.849Z,45.72
2019-03-25T08:07:53.890Z,44.77
2019-03-25T08:10:34.980Z,43.95
2019-03-25T08:13:06.063Z,43.52
2019-03-25T08:15:37.231Z,41.25
2019-03-25T08:18:08.398Z,39.72
2019-03-25T08:20:39.536Z,39.51
2019-03-25T08:23:10.697Z,39.36
2019-03-25T08:25:41.706Z,38.11
2019-03-25T08:28:12.969Z,38.58
2019-03-25T08:30:44.041Z,38.50
2019-03-25T08:33:15.158Z,37.68
2019-03-25T08:35:46.278Z,37.26
2019-03-25T08:38:17.514Z,36.68
2019-03-25T08:40:49.735Z,36.90
2019-03-25T08:43:21.320Z,36.92
2019-03-25T08:45:52.538Z,36.73
2019-03-25T08:48:24.145Z,36.17
2019-03-25T08:50:58.079Z,36.43
2019-03-25T08:53:29.300Z,36.06
2019-03-25T08:56:00.501Z,36.38
2019-03-25T08:58:31.715Z,36.61
2019-03-25T09:01:02.874Z,36.71
2019-03-25T09:03:33.975Z,36.04
2019-03-25T09:06:05.070Z,35.93
2019-03-25T09:08:36.305Z,36.48
2019-03-25T09:11:07.370Z,36.29
2019-03-25T09:13:38.509Z,36.16
2019-03-25T09:16:09.558Z,35.60
2019-03-25T09:18:40.967Z,36.16
2019-03-25T09:21:12.132Z,35.41
2019-03-25T09:23:43.160Z,35.47
2019-03-25T09:26:14.272Z,35.35
2019-03-25T09:28:45.260Z,35.84
2019-03-25T09:31:16.763Z,35.48
2019-03-25T09:33:49.439Z,35.00
2019-03-25T09:36:20.559Z,34.92
2019-03-25T09:38:51.687Z,34.97
2019-03-25T09:41:24.442Z,35.32
2019-03-25T09:43:55.499Z,34.86
2019-03-25T09:46:26.598Z,34.52
2019-03-25T09:48:57.771Z,34.70
2019-03-25T09:51:28.885Z,34.47
2019-03-25T09:53:59.965Z,33.82
2019-03-25T09:56:31.099Z,34.21
2019-03-25T09:59:02.335Z,34.48
2019-03-25T10:01:34.630Z,34.32
2019-03-25T10:04:05.826Z,33.88
2019-03-25T10:06:37.046Z,33.60
2019-03-25T10:09:09.823Z,33.43
2019-03-25T10:11:40.955Z,33.21
2019-03-25T10:14:11.981Z,32.71
2019-03-25T10:16:43.068Z,33.03
2019-03-25T10:19:14.095Z,33.46
2019-03-25T10:21:45.091Z,33.56
2019-03-25T10:24:17.314Z,33.04
2019-03-25T10:26:48.436Z,33.05
2019-03-25T10:29:19.598Z,33.09
2019-03-25T10:31:50.657Z,32.82
2019-03-25T10:34:21.913Z,33.10
2019-03-25T10:36:53.233Z,33.09
2019-03-25T10:39:24.323Z,32.92
2019-03-25T10:41:55.409Z,33.01
2019-03-25T10:44:26.590Z,32.89
2019-03-25T10:46:57.722Z,33.13
2019-03-25T10:49:28.983Z,32.92
2019-03-25T10:51:59.986Z,32.55
2019-03-25T10:54:31.181Z,32.40
2019-03-25T10:57:02.368Z,32.33
2019-03-25T10:59:33.501Z,32.35
2019-03-25T11:02:04.916Z,32.43
2019-03-25T11:04:36.028Z,33.16
2019-03-25T11:07:07.295Z,33.04
2019-03-25T11:09:41.052Z,32.78
2019-03-25T11:12:12.460Z,33.17
2019-03-25T11:14:43.615Z,33.27
2019-03-25T11:17:14.885Z,33.21
2019-03-25T11:19:45.895Z,33.32
2019-03-25T11:22:16.964Z,33.47
2019-03-25T11:24:48.145Z,33.32
2019-03-25T11:27:19.358Z,32.67
2019-03-25T11:29:50.514Z,32.30
2019-03-25T11:32:21.538Z,31.87
2019-03-25T11:34:52.744Z,32.16
2019-03-25T11:37:23.863Z,31.85
2019-03-25T11:39:55.012Z,31.40
2019-03-25T11:42:26.060Z,31.50
2019-03-25T11:44:57.349Z,31.33
2019-03-25T11:47:28.680Z,31.35
2019-03-25T11:50:00.317Z,31.95
2019-03-25T11:52:31.383Z,31.17
2019-03-25T11:55:02.660Z,30.84
2019-03-25T11:57:33.983Z,31.05
2019-03-25T12:00:10.430Z,31.10
2019-03-25T12:02:44.858Z,31.23
2019-03-25T12:05:16.172Z,30.83
2019-03-25T12:07:51.042Z,30.54
2019-03-25T12:10:24.116Z,30.78
2019-03-25T12:12:55.796Z,30.71
2019-03-25T12:15:26.986Z,30.69
2019-03-25T12:18:06.239Z,30.93
2019-03-25T12:20:38.724Z,31.18
2019-03-25T12:23:14.542Z,31.02
2019-03-25T12:25:48.273Z,30.41
2019-03-25T12:28:20.863Z,30.78
2019-03-25T12:31:01.331Z,30.19
2019-03-25T12:33:33.269Z,30.41
2019-03-25T12:36:04.730Z,29.97
2019-03-25T12:38:37.737Z,30.16
2019-03-25T12:41:09.034Z,30.65
2019-03-25T12:43:40.527Z,30.01
2019-03-25T12:46:11.667Z,30.18
2019-03-25T12:48:42.797Z,30.90
2019-03-25T12:51:14.075Z,30.42
2019-03-25T12:53:45.581Z,30.39
2019-03-25T12:56:16.807Z,30.38
2019-03-25T12:58:47.980Z,30.38
2019-03-25T13:01:23.587Z,30.57
2019-03-25T13:03:54.987Z,30.71
2019-03-25T13:06:26.137Z,30.55
2019-03-25T13:09:00.379Z,31.05
2019-03-25T13:11:31.774Z,31.00
2019-03-25T13:14:03.056Z,31.40
2019-03-25T13:16:34.368Z,31.58
2019-03-25T13:19:05.568Z,31.84
2019-03-25T13:21:36.922Z,31.75
2019-03-25T13:24:10.367Z,31.71
2019-03-25T13:26:41.631Z,31.75
2019-03-25T13:29:14.292Z,31.32
2019-03-25T13:31:45.642Z,30.96
2019-03-25T13:34:16.809Z,30.95
2019-03-25T13:36:47.966Z,30.90
2019-03-25T13:39:20.191Z,30.72
2019-03-25T13:41:51.394Z,30.33
2019-03-25T13:44:22.663Z,29.67
2019-03-25T13:46:54.518Z,29.59
2019-03-25T13:49:25.738Z,29.85
2019-03-25T13:51:56.918Z,29.59
2019-03-25T13:54:27.967Z,29.68
2019-03-25T13:57:04.089Z,29.70
2019-03-25T13:59:41.762Z,30.02
2019-03-25T14:02:12.885Z,30.29
2019-03-25T14:04:43.986Z,30.55
2019-03-25T14:07:16.004Z,30.84
2019-03-25T14:09:50.143Z,31.26
2019-03-25T14:12:21.568Z,31.23
2019-03-25T14:14:52.625Z,31.46
2019-03-25T14:17:23.845Z,31.42
2019-03-25T14:19:54.862Z,31.45
2019-03-25T14:22:26.052Z,31.29
2019-03-25T14:24:57.062Z,31.16
2019-03-25T14:27:28.225Z,31.45
2019-03-25T14:29:59.373Z,31.85
2019-03-25T14:32:30.603Z,32.88
2019-03-25T14:35:01.737Z,33.49
2019-03-25T14:37:34.777Z,33.86
2019-03-25T14:40:07.865Z,33.49
2019-03-25T14:42:45.500Z,33.61
2019-03-25T14:45:26.115Z,33.57
2019-03-25T14:47:53.614Z,33.36
2019-03-25T14:50:26.180Z,33.54
2019-03-25T14:52:57.499Z,33.46
2019-03-25T14:55:31.269Z,33.40
2019-03-25T14:58:02.553Z,32.80
2019-03-25T15:00:33.677Z,32.08
2019-03-25T15:03:05.044Z,30.90
2019-03-25T15:05:36.281Z,30.73
2019-03-25T15:08:07.300Z,30.61
2019-03-25T15:10:38.355Z,30.75
2019-03-25T15:13:09.496Z,31.27
2019-03-25T15:15:40.663Z,32.63
2019-03-25T15:18:15.821Z,33.21
2019-03-25T15:20:44.543Z,34.20
2019-03-25T15:23:15.771Z,35.20
2019-03-25T15:25:46.911Z,36.11
2019-03-25T15:28:18.035Z,37.20
2019-03-25T15:30:49.150Z,37.42
2019-03-25T15:33:20.259Z,39.31
2019-03-25T15:35:52.511Z,40.40
2019-03-25T15:38:25.597Z,41.58
2019-03-25T15:40:56.671Z,42.66
2019-03-25T15:43:28.841Z,43.06
2019-03-25T15:46:00.101Z,43.64
2019-03-25T15:48:32.516Z,44.53
2019-03-25T15:51:03.706Z,45.55
2019-03-25T15:53:34.921Z,45.44
2019-03-25T15:56:06.063Z,46.00
2019-03-25T15:58:37.217Z,46.50
2019-03-25T16:01:08.297Z,46.56
2019-03-25T16:03:39.466Z,46.97
2019-03-25T16:06:10.652Z,47.03
2019-03-25T16:08:41.739Z,47.60
2019-03-25T16:11:12.750Z,47.64
2019-03-25T16:13:43.832Z,47.89
2019-03-25T16:16:15.011Z,48.02
2019-03-25T16:18:47.293Z,47.99
2019-03-25T16:21:18.517Z,48.31
2019-03-25T16:23:50.459Z,48.23
2019-03-25T16:26:23.267Z,48.75
2019-03-25T16:28:56.222Z,48.81
2019-03-25T16:31:27.259Z,49.18
2019-03-25T16:34:00.013Z,49.31
2019-03-25T16:36:31.326Z,49.64
2019-03-25T16:39:05.626Z,49.46
2019-03-25T16:41:38.331Z,49.47
2019-03-25T16:44:10.546Z,49.39
2019-03-25T16:46:41.691Z,49.52
2019-03-25T16:49:13.018Z,49.83
2019-03-25T16:51:44.200Z,49.81
2019-03-25T16:54:16.447Z,50.04
2019-03-25T16:56:47.630Z,50.15
2019-03-25T16:59:18.716Z,50.97
2019-03-25T17:01:50.021Z,51.56
2019-03-25T17:04:21.145Z,52.17
2019-03-25T17:06:52.303Z,53.12
2019-03-25T17:09:25.079Z,54.09
2019-03-25T17:11:56.308Z,53.60
2019-03-25T17:14:27.572Z,54.23
2019-03-25T17:16:58.844Z,55.34
2019-03-25T17:19:30.084Z,55.14
2019-03-25T17:22:01.194Z,55.70
2019-03-25T17:24:32.471Z,56.43
2019-03-25T17:27:06.537Z,56.89
2019-03-25T17:29:39.819Z,57.52
2019-03-25T17:32:13.883Z,58.53
2019-03-25T17:34:45.100Z,58.64
2019-03-25T17:37:17.458Z,58.66
2019-03-25T17:39:49.859Z,58.81
2019-03-25T17:42:20.999Z,59.18
2019-03-25T17:44:53.381Z,59.10
2019-03-25T17:47:24.575Z,58.09
2019-03-25T17:49:55.848Z,58.09
2019-03-25T17:52:27.237Z,57.75
2019-03-25T17:54:58.649Z,58.07
2019-03-25T17:57:30.158Z,58.56
2019-03-25T18:00:03.357Z,57.43
2019-03-25T18:02:38.719Z,58.32
2019-03-25T18:05:09.861Z,57.84
2019-03-25T18:07:42.970Z,57.89
2019-03-25T18:10:17.076Z,57.94
2019-03-25T18:12:48.228Z,58.45
2019-03-25T18:15:20.649Z,58.04
2019-03-25T18:17:51.964Z,58.02
2019-03-25T18:20:23.167Z,57.90
2019-03-25T18:22:54.833Z,57.50
2019-03-25T18:25:29.590Z,57.63
2019-03-25T18:28:00.713Z,57.93
2019-03-25T18:30:33.000Z,57.67
2019-03-25T18:33:04.245Z,58.48
2019-03-25T18:35:37.104Z,57.82
2019-03-25T18:38:08.255Z,58.10
2019-03-25T18:40:39.316Z,57.58
2019-03-25T18:43:10.581Z,58.07
2019-03-25T18:45:41.948Z,58.37
2019-03-25T18:48:13.146Z,58.73
2019-03-25T18:50:44.462Z,57.49
2019-03-25T18:53:15.599Z,59.02
2019-03-25T18:55:46.806Z,58.47
2019-03-25T18:58:18.302Z,58.68
2019-03-25T19:00:49.758Z,57.93
2019-03-25T19:03:21.051Z,58.17
2019-03-25T19:05:52.306Z,58.05
2019-03-25T19:08:23.579Z,58.70
2019-03-25T19:10:54.761Z,57.70
2019-03-25T19:13:26.508Z,57.50
2019-03-25T19:15:57.580Z,57.59
2019-03-25T19:18:28.884Z,57.94
2019-03-25T19:21:00.224Z,57.62
2019-03-25T19:23:31.274Z,57.48
2019-03-25T19:26:02.425Z,56.96
2019-03-25T19:28:33.523Z,56.69
2019-03-25T19:31:05.503Z,56.72
2019-03-25T19:33:36.617Z,56.91
2019-03-25T19:36:07.825Z,57.29
2019-03-25T19:38:38.908Z,57.77
2019-03-25T19:41:10.067Z,57.35
2019-03-25T19:43:41.353Z,58.11
2019-03-25T19:46:12.494Z,58.66
2019-03-25T19:48:43.689Z,58.26
2019-03-25T19:51:14.771Z,57.74
2019-03-25T19:53:46.246Z,57.65
2019-03-25T19:56:18.269Z,59.52
2019-03-25T19:58:49.827Z,60.79
2019-03-25T20:01:21.199Z,60.58
2019-03-25T20:03:52.344Z,60.19
2019-03-25T20:06:30.087Z,60.10
2019-03-25T20:09:01.722Z,60.20
2019-03-25T20:11:34.580Z,61.61
2019-03-25T20:14:05.587Z,62.01
2019-03-25T20:16:36.866Z,62.16
2019-03-25T20:19:08.129Z,62.13
2019-03-25T20:21:39.637Z,62.24
2019-03-25T20:24:11.004Z,62.36
2019-03-25T20:26:43.432Z,62.46
2019-03-25T20:29:14.575Z,62.69
2019-03-25T20:31:46.005Z,62.81
2019-03-25T20:34:17.267Z,63.37
2019-03-25T20:36:49.608Z,63.73
2019-03-25T20:39:21.203Z,64.14
2019-03-25T20:41:52.362Z,64.27
2019-03-25T20:44:23.793Z,64.07
2019-03-25T20:46:58.997Z,64.29
2019-03-25T20:49:31.079Z,64.87
2019-03-25T20:52:02.625Z,65.32
2019-03-25T20:54:33.746Z,65.64
2019-03-25T20:57:05.147Z,65.71
2019-03-25T20:59:36.480Z,65.93
2019-03-25T21:02:08.902Z,66.15
2019-03-25T21:04:40.193Z,66.53
2019-03-25T21:07:12.544Z,67.20
2019-03-25T21:09:43.849Z,67.05
2019-03-25T21:12:15.785Z,67.48
2019-03-25T21:14:48.103Z,67.42
2019-03-25T21:17:24.715Z,67.04
2019-03-25T21:19:57.255Z,67.05
2019-03-25T21:22:28.570Z,66.87
2019-03-25T21:24:59.784Z,66.69
2019-03-25T21:27:31.096Z,66.96
2019-03-25T21:30:02.309Z,66.94
2019-03-25T21:32:34.709Z,66.74
2019-03-25T21:35:06.768Z,66.71
2019-03-25T21:37:38.295Z,66.50
2019-03-25T21:40:11.011Z,66.31
2019-03-25T21:42:42.502Z,66.00
2019-03-25T21:45:13.558Z,66.06
2019-03-25T21:47:47.859Z,65.99
2019-03-25T21:50:19.298Z,65.82
2019-03-25T21:52:50.399Z,65.81
2019-03-25T21:55:21.646Z,65.94
2019-03-25T21:57:53.895Z,65.71
2019-03-25T22:00:26.708Z,65.60
2019-03-25T22:03:11.027Z,65.64
2019-03-25T22:05:31.251Z,65.53
2019-03-25T22:08:02.303Z,65.44
2019-03-25T22:10:34.793Z,65.28
2019-03-25T22:13:09.714Z,65.54
2019-03-25T22:15:41.074Z,65.59
2019-03-25T22:18:12.365Z,65.71
2019-03-25T22:20:43.520Z,65.66
2019-03-25T22:23:14.755Z,66.01
2019-03-25T22:25:45.875Z,66.12
2019-03-25T22:28:17.025Z,66.14
2019-03-25T22:30:48.127Z,65.82
2019-03-25T22:33:25.692Z,65.82
2019-03-25T22:35:52.034Z,66.05
2019-03-25T22:38:23.131Z,66.45
2019-03-25T22:40:54.129Z,66.34
2019-03-25T22:43:25.300Z,66.35
2019-03-25T22:45:56.580Z,66.22
2019-03-25T22:48:27.567Z,66.00
2019-03-25T22:50:58.810Z,66.34
2019-03-25T22:53:30.944Z,66.21
2019-03-25T22:56:02.074Z,66.24
2019-03-25T22:58:34.161Z,65.78
2019-03-25T23:01:05.504Z,65.80
2019-03-25T23:03:39.428Z,65.83
2019-03-25T23:06:09.422Z,65.84
2019-03-25T23:08:40.513Z,65.96
2019-03-25T23:11:13.968Z,66.08
2019-03-25T23:13:45.053Z,66.28
2019-03-25T23:16:16.257Z,66.11
2019-03-25T23:18:47.486Z,66.83
2019-03-25T23:21:18.678Z,66.70
2019-03-25T23:23:49.863Z,66.84
2019-03-25T23:26:21.129Z,66.92
2019-03-25T23:28:53.300Z,67.29
2019-03-25T23:31:24.394Z,67.20
2019-03-25T23:33:55.579Z,67.11
2019-03-25T23:36:26.805Z,66.81
2019-03-25T23:38:58.026Z,66.82
2019-03-25T23:41:29.241Z,66.76
2019-03-25T23:44:00.325Z,67.24
2019-03-25T23:46:31.395Z,67.41
2019-03-25T23:49:02.537Z,67.30
2019-03-25T23:51:33.638Z,67.74
2019-03-25T23:54:14.643Z,67.61
2019-03-25T23:56:46.056Z,67.62
2019-03-25T23:59:17.160Z,67.45
